Time;durP1;ratioP1;P1;durP2;ratioP2;P2;SDS_P1;SDS_P2;PMS_P1;PMS_P2;Temp;Humidity;BMP_temperature;BMP_pressure;BME280_temperature;BME280_humidity;BME280_pressure;Samples;Min_cycle;Max_cycle;Signal;HPM_P1;HPM_P2
2023/05/22 00:01:55;;;;;;;;;;;20.90;86.40;;;21.03;52.17;98243.72;5080658;27;124257;-84
2023/05/22 00:04:21;;;;;;;;;;;20.80;86.50;;;21.01;52.58;98245.31;5057092;27;123995;-85
2023/05/22 00:06:48;;;;;;;;;;;20.80;86.70;;;20.98;52.13;98244.09;5075468;27;114948;-83
2023/05/22 00:09:19;;;;;;;;;;;20.80;86.90;;;20.95;52.67;98247.69;5054509;27;112848;-84
2023/05/22 00:11:46;;;;;;;;;;;20.70;86.90;;;20.93;52.68;98244.50;5070036;27;124163;-84
2023/05/22 00:14:12;;;;;;;;;;;20.70;87.00;;;20.89;52.64;98243.66;5040319;27;123190;-83
2023/05/22 00:16:45;;;;;;;;;;;20.70;87.30;;;20.87;53.05;98240.44;5071020;27;113720;-84
2023/05/22 00:19:15;;;;;;;;;;;20.70;87.50;;;20.83;52.98;98242.44;5073573;27;112772;-84
2023/05/22 00:21:42;;;;;;;;;;;20.60;87.50;;;20.81;53.31;98236.41;5090649;27;124178;-83
2023/05/22 00:24:08;;;;;;;;;;;20.60;87.70;;;20.77;52.87;98238.38;5061322;27;123556;-84
2023/05/22 00:26:35;;;;;;;;;;;20.50;87.80;;;20.74;53.39;98249.22;5045288;27;113654;-84
2023/05/22 00:29:01;;;;;;;;;;;20.50;88.00;;;20.72;53.15;98243.19;5089369;27;113436;-84
2023/05/22 00:31:29;;;;;;;;;;;20.50;88.20;;;20.69;53.21;98246.00;5091854;27;124361;-84
2023/05/22 00:33:55;;;;;;;;;;;20.50;88.40;;;20.65;53.29;98239.53;5080966;27;124541;-84
2023/05/22 00:36:21;;;;;;;;;;;20.50;88.50;;;20.63;53.26;98248.38;5061246;27;114588;-84
2023/05/22 00:38:48;;;;;;;;;;;20.40;88.60;;;20.60;53.30;98232.28;5086820;27;113688;-85
2023/05/22 00:41:21;;;;;;;;;;;20.40;88.70;;;20.57;53.67;98238.69;5082812;27;124824;-83
2023/05/22 00:43:48;;;;;;;;;;;20.40;88.80;;;20.55;53.80;98245.91;5074797;27;123936;-84
2023/05/22 00:46:21;;;;;;;;;;;20.30;88.90;;;20.51;53.84;98241.06;5069570;27;116064;-84
2023/05/22 00:48:55;;;;;;;;;;;20.30;89.10;;;20.48;54.00;98241.03;5076855;27;114941;-84
2023/05/22 00:51:22;;;;;;;;;;;20.30;89.20;;;20.46;53.68;98237.81;5085701;27;124912;-84
2023/05/22 00:53:50;;;;;;;;;;;20.20;89.30;;;20.44;54.05;98240.19;5078728;27;123603;-84
2023/05/22 00:56:20;;;;;;;;;;;20.20;89.40;;;20.42;53.72;98237.00;5062526;27;112887;-84
2023/05/22 00:58:47;;;;;;;;;;;20.20;89.50;;;20.40;53.92;98245.00;5069539;27;113970;-84
2023/05/22 01:01:21;;;;;;;;;;;20.20;89.60;;;20.37;54.01;98240.97;5068839;27;124098;-84
2023/05/22 01:03:49;;;;;;;;;;;20.10;89.60;;;20.34;54.18;98243.75;5085419;27;123816;-84
2023/05/22 01:06:20;;;;;;;;;;;20.10;89.80;;;20.32;54.27;98234.94;5063964;27;114887;-84
2023/05/22 01:08:46;;;;;;;;;;;20.10;89.90;;;20.26;53.98;98240.91;5057190;27;112818;-83
2023/05/22 01:11:21;;;;;;;;;;;20.00;89.90;;;20.25;54.06;98242.09;5074042;27;124281;-84
2023/05/22 01:14:20;;;;;;;;;;;20.00;90.00;;;20.21;54.42;98244.09;5063882;27;122914;-84
2023/05/22 01:17:01;;;;;;;;;;;20.00;90.10;;;20.15;54.67;98245.66;5063997;27;114498;-84
2023/05/22 01:19:49;;;;;;;;;;;19.90;90.10;;;20.13;54.62;98242.44;5092208;27;112909;-84
2023/05/22 01:22:32;;;;;;;;;;;20.00;90.20;;;20.10;54.74;98243.22;5086265;27;123600;-84
2023/05/22 01:25:17;;;;;;;;;;;19.90;90.20;;;20.08;54.74;98245.59;5076375;27;123025;-84
2023/05/22 01:27:49;;;;;;;;;;;19.90;90.30;;;20.07;54.51;98246.78;5066222;27;114252;-84
2023/05/22 01:30:41;;;;;;;;;;;19.80;90.40;;;20.04;54.80;98251.19;5093987;27;113792;-85
2023/05/22 01:33:08;;;;;;;;;;;19.80;90.40;;;20.02;54.75;98252.75;5072393;27;124312;-84
2023/05/22 01:35:36;;;;;;;;;;;19.80;90.50;;;20.02;54.64;98261.19;5058120;27;123449;-84
2023/05/22 01:38:06;;;;;;;;;;;19.80;90.50;;;19.98;54.74;98257.53;5090519;27;114991;-84
2023/05/22 01:40:33;;;;;;;;;;;19.80;90.60;;;19.98;54.86;98257.53;5062907;27;113722;-84
2023/05/22 01:43:00;;;;;;;;;;;19.70;90.60;;;19.94;55.02;98256.72;5086810;27;124682;-84
2023/05/22 01:45:30;;;;;;;;;;;19.70;90.60;;;19.93;55.18;98260.69;5064623;27;124020;-84
2023/05/22 01:47:57;;;;;;;;;;;19.70;90.70;;;19.89;55.02;98257.06;5054634;27;114150;-84
2023/05/22 01:50:23;;;;;;;;;;;19.70;90.80;;;19.88;55.21;98261.03;5073534;27;113788;-84
2023/05/22 01:53:17;;;;;;;;;;;19.60;90.80;;;19.84;55.09;98264.63;5060638;27;124364;-84
2023/05/22 01:55:56;;;;;;;;;;;19.60;90.80;;;19.81;55.14;98259.81;5048150;27;123591;-84
2023/05/22 01:58:53;;;;;;;;;;;19.60;90.90;;;19.80;55.32;98263.81;5066665;27;114153;-85
2023/05/22 02:01:21;;;;;;;;;;;19.60;91.00;;;19.77;55.29;98269.38;5068441;27;113828;-86
2023/05/22 02:03:50;;;;;;;;;;;19.50;90.90;;;19.74;55.36;98265.34;5073503;27;124899;-86
2023/05/22 02:06:19;;;;;;;;;;;19.50;91.00;;;19.73;55.48;98274.94;5079062;27;123526;-86
2023/05/22 02:08:46;;;;;;;;;;;19.50;91.00;;;19.71;55.39;98260.50;5068402;27;113376;-86
2023/05/22 02:11:17;;;;;;;;;;;19.50;91.10;;;19.70;55.25;98266.50;5072673;27;113735;-85
2023/05/22 02:13:43;;;;;;;;;;;19.50;91.10;;;19.68;55.78;98266.09;5055090;27;123338;-86
2023/05/22 02:16:18;;;;;;;;;;;19.50;91.20;;;19.65;55.48;98264.84;5052736;27;123488;-86
2023/05/22 02:18:45;;;;;;;;;;;19.40;91.20;;;19.62;55.81;98274.00;5074873;27;113445;-86
2023/05/22 02:21:20;;;;;;;;;;;19.40;91.20;;;19.60;55.78;98267.97;5076522;27;113912;-86
2023/05/22 02:23:49;;;;;;;;;;;19.40;91.30;;;19.57;55.95;98271.56;5090147;27;124191;-85
2023/05/22 02:26:17;;;;;;;;;;;19.30;91.30;;;19.55;55.81;98265.53;5083396;27;124675;-86
2023/05/22 02:28:43;;;;;;;;;;;19.30;91.40;;;19.55;55.83;98259.94;5084496;27;115626;-86
2023/05/22 02:31:12;;;;;;;;;;;19.30;91.40;;;19.53;56.08;98265.94;5078787;27;114739;-86
2023/05/22 02:33:44;;;;;;;;;;;19.30;91.50;;;19.50;55.94;98258.28;5090346;27;124393;-86
2023/05/22 02:36:13;;;;;;;;;;;19.30;91.60;;;19.49;55.78;98261.47;5084127;27;123994;-86
2023/05/22 02:38:41;;;;;;;;;;;19.20;91.60;;;19.48;56.14;98265.44;5058713;27;114384;-86
2023/05/22 02:41:07;;;;;;;;;;;19.20;91.60;;;19.47;56.37;98256.25;5069488;27;112885;-86
2023/05/22 02:43:34;;;;;;;;;;;19.20;91.70;;;19.46;56.19;98257.44;5067490;27;123203;-85
2023/05/22 02:46:00;;;;;;;;;;;19.20;91.70;;;19.46;56.27;98259.44;5073397;27;123753;-86
2023/05/22 02:48:29;;;;;;;;;;;19.20;91.80;;;19.44;56.16;98254.22;5076571;27;114197;-86
2023/05/22 02:50:56;;;;;;;;;;;19.20;91.80;;;19.42;56.35;98251.81;5071361;27;113775;-85
2023/05/22 02:53:22;;;;;;;;;;;19.20;91.90;;;19.42;56.59;98265.00;5059351;27;123627;-87
2023/05/22 02:55:48;;;;;;;;;;;19.10;91.90;;;19.41;56.35;98261.41;5090236;27;124386;-86
2023/05/22 02:58:18;;;;;;;;;;;19.10;91.90;;;19.42;56.30;98265.00;5060074;27;113338;-86
2023/05/22 03:00:44;;;;;;;;;;;19.10;92.00;;;19.42;56.56;98259.41;5092276;27;112889;-87
2023/05/22 03:03:10;;;;;;;;;;;19.10;92.00;;;19.42;56.81;98251.00;5089794;27;123130;-86
2023/05/22 03:05:37;;;;;;;;;;;19.10;92.10;;;19.40;56.62;98262.59;5057517;27;123551;-86
2023/05/22 03:08:08;;;;;;;;;;;19.10;92.20;;;19.40;56.83;98265.41;5074944;27;113773;-86
2023/05/22 03:10:34;;;;;;;;;;;19.10;92.20;;;19.38;56.77;98270.56;5066449;27;113172;-86
2023/05/22 03:13:00;;;;;;;;;;;19.10;92.30;;;19.37;56.79;98266.16;5090288;27;124835;-86
2023/05/22 03:15:29;;;;;;;;;;;19.10;92.30;;;19.37;57.24;98270.94;5057856;27;123451;-86
2023/05/22 03:17:56;;;;;;;;;;;19.10;92.40;;;19.36;56.84;98270.16;5086405;27;115737;-86
2023/05/22 03:20:22;;;;;;;;;;;19.10;92.40;;;19.36;56.78;98272.94;5084218;27;114751;-86
2023/05/22 03:22:48;;;;;;;;;;;19.10;92.40;;;19.35;56.73;98276.94;5065075;27;124079;-86
2023/05/22 03:25:19;;;;;;;;;;;19.10;92.50;;;19.34;56.99;98272.53;5055002;27;123059;-85
2023/05/22 03:27:45;;;;;;;;;;;19.00;92.40;;;19.32;56.79;98277.72;5066346;27;113278;-83
2023/05/22 03:30:12;;;;;;;;;;;19.00;92.40;;;19.31;56.80;98273.28;5091231;27;113798;-86
2023/05/22 03:32:41;;;;;;;;;;;19.00;92.40;;;19.32;56.95;98282.53;5073997;27;123996;-85
2023/05/22 03:35:08;;;;;;;;;;;19.00;92.50;;;19.27;57.07;98280.06;5090276;27;123160;-86
2023/05/22 03:37:34;;;;;;;;;;;19.00;92.50;;;19.25;56.95;98288.84;5089348;27;114707;-86
2023/05/22 03:40:01;;;;;;;;;;;19.00;92.50;;;19.24;57.11;98286.44;5071947;27;113770;-86
2023/05/22 03:42:29;;;;;;;;;;;19.00;92.50;;;19.24;57.20;98287.22;5081607;27;124093;-86
2023/05/22 03:44:55;;;;;;;;;;;19.00;92.60;;;19.22;56.99;98295.22;5078388;27;123847;-87
2023/05/22 03:47:22;;;;;;;;;;;18.90;92.60;;;19.23;57.21;98294.00;5074782;27;114328;-85
2023/05/22 03:49:48;;;;;;;;;;;18.90;92.60;;;19.24;57.13;98304.03;5083645;27;113682;-86
2023/05/22 03:52:14;;;;;;;;;;;19.00;92.70;;;19.24;57.24;98298.44;5067714;27;124127;-86
2023/05/22 03:54:41;;;;;;;;;;;18.90;92.70;;;19.24;57.01;98290.03;5057422;27;124055;-86
2023/05/22 03:57:07;;;;;;;;;;;18.90;92.70;;;19.24;57.29;98298.44;5051753;27;114786;-86
2023/05/22 03:59:42;;;;;;;;;;;18.90;92.80;;;19.26;57.38;98286.84;5055232;27;113339;-85
2023/05/22 04:02:19;;;;;;;;;;;18.90;92.80;;;19.26;57.51;98296.03;5070555;27;124258;-88
2023/05/22 04:04:49;;;;;;;;;;;18.90;92.90;;;19.22;57.34;98289.59;5074999;27;124264;-87
2023/05/22 04:07:17;;;;;;;;;;;18.90;93.10;;;19.15;57.57;98295.13;5079724;27;115570;-86
2023/05/22 04:09:43;;;;;;;;;;;18.90;93.40;;;19.08;58.18;98303.44;5076494;27;115451;-86
2023/05/22 04:12:09;;;;;;;;;;;18.80;93.30;;;18.98;58.34;98307.72;5063349;27;124134;-86
2023/05/22 04:14:37;;;;;;;;;;;18.80;93.30;;;18.89;58.63;98305.22;5088485;27;123884;-86
2023/05/22 04:17:03;;;;;;;;;;;18.70;93.40;;;18.85;58.62;98301.53;5078469;27;114426;-87
2023/05/22 04:19:29;;;;;;;;;;;18.70;93.50;;;18.85;58.63;98300.75;5057533;27;113101;-87
2023/05/22 04:22:05;;;;;;;;;;;18.70;93.50;;;18.88;58.67;98308.38;5074465;27;123985;-87
2023/05/22 04:24:32;;;;;;;;;;;18.60;93.50;;;18.85;59.01;98301.53;5061003;27;123239;-86
2023/05/22 04:27:01;;;;;;;;;;;18.60;93.70;;;18.81;59.09;98309.09;5082317;27;114855;-87
2023/05/22 04:29:28;;;;;;;;;;;18.60;93.80;;;18.82;59.04;98309.91;5073466;27;114236;-87
2023/05/22 04:31:54;;;;;;;;;;;18.60;93.80;;;18.82;59.09;98316.31;5051553;27;124178;-87
2023/05/22 04:34:27;;;;;;;;;;;18.60;93.80;;;18.83;58.92;98315.09;5054154;27;123100;-86
2023/05/22 04:36:53;;;;;;;;;;;18.60;93.80;;;18.87;58.99;98321.56;5059704;27;113499;-86
2023/05/22 04:39:28;;;;;;;;;;;18.60;93.90;;;18.91;58.99;98318.81;5085083;27;114387;-87
2023/05/22 04:41:55;;;;;;;;;;;18.60;93.90;;;18.94;58.80;98318.88;5070316;27;123472;-87
2023/05/22 04:44:24;;;;;;;;;;;18.60;93.90;;;19.00;58.83;98321.34;5070548;27;123650;-86
2023/05/22 04:46:50;;;;;;;;;;;18.70;94.00;;;19.03;58.90;98314.97;5057004;27;114225;-87
2023/05/22 04:49:17;;;;;;;;;;;18.70;94.00;;;19.08;58.78;98314.66;5063780;27;113300;-86
2023/05/22 04:51:43;;;;;;;;;;;18.70;94.00;;;19.12;58.72;98309.88;5047098;27;123162;-86
2023/05/22 04:54:12;;;;;;;;;;;18.70;94.10;;;19.15;58.76;98315.50;5061877;27;124228;-84
2023/05/22 04:56:40;;;;;;;;;;;18.80;94.10;;;19.18;58.56;98311.97;5077790;27;115071;-86
2023/05/22 04:59:07;;;;;;;;;;;18.80;94.10;;;19.22;58.16;98316.81;5077099;27;115169;-85
2023/05/22 05:01:36;;;;;;;;;;;18.80;94.10;;;19.25;58.59;98321.66;5064974;27;124269;-86
2023/05/22 05:04:03;;;;;;;;;;;18.80;94.10;;;19.26;58.27;98323.25;5063154;27;123754;-86
2023/05/22 05:06:29;;;;;;;;;;;18.90;94.10;;;19.28;58.28;98326.47;5066622;27;114262;-84
2023/05/22 05:08:55;;;;;;;;;;;18.90;94.10;;;19.30;58.23;98319.31;5078221;27;114306;-84
2023/05/22 05:11:25;;;;;;;;;;;18.90;94.00;;;19.36;58.34;98323.38;5080649;27;123926;-88
2023/05/22 05:13:51;;;;;;;;;;;19.00;94.10;;;19.38;58.41;98321.00;5067078;27;123310;-85
2023/05/22 05:16:19;;;;;;;;;;;19.00;94.10;;;19.42;58.68;98310.66;5061243;27;115154;-84
2023/05/22 05:18:48;;;;;;;;;;;19.00;94.20;;;19.50;58.31;98322.72;5074922;27;115522;-85
2023/05/22 05:21:15;;;;;;;;;;;19.10;94.20;;;19.55;58.13;98318.78;5069762;27;122925;-84
2023/05/22 05:23:41;;;;;;;;;;;19.10;94.10;;;19.60;57.83;98321.22;5072451;27;123793;-83
2023/05/22 05:26:07;;;;;;;;;;;19.10;94.00;;;;;;5058163;27;115355;-84
2023/05/22 05:28:39;;;;;;;;;;;19.20;94.00;;;19.67;57.91;98315.75;5072677;27;114109;-84
2023/05/22 05:31:06;;;;;;;;;;;19.20;93.90;;;19.71;57.36;98318.56;5058235;27;124158;-83
2023/05/22 05:33:41;;;;;;;;;;;19.30;93.90;;;19.76;57.52;98315.41;5052660;27;123810;-84
2023/05/22 05:36:07;;;;;;;;;;;19.30;93.90;;;19.82;57.21;98311.06;5074015;27;114438;-86
2023/05/22 05:38:39;;;;;;;;;;;19.40;93.80;;;19.84;56.96;98315.09;5053598;27;113388;-85
2023/05/22 05:41:08;;;;;;;;;;;19.30;93.80;;;19.86;57.12;98318.31;5050998;27;124836;-84
2023/05/22 05:43:36;;;;;;;;;;;19.40;93.80;;;19.88;57.07;98319.91;5046858;27;123796;-85
2023/05/22 05:46:03;;;;;;;;;;;19.50;93.80;;;19.93;56.93;98316.75;5082641;27;115388;-83
2023/05/22 05:48:29;;;;;;;;;;;19.50;93.70;;;19.98;56.82;98320.03;5069243;27;114603;-83
2023/05/22 05:50:55;;;;;;;;;;;19.50;93.60;;;20.04;56.82;98317.66;5070613;27;124058;-83
2023/05/22 05:53:28;;;;;;;;;;;19.60;93.60;;;20.10;56.71;98321.75;5076011;27;124315;-84
2023/05/22 05:55:56;;;;;;;;;;;19.60;93.60;;;20.14;56.47;98324.56;5067126;27;114406;-84
2023/05/22 05:58:25;;;;;;;;;;;19.70;93.50;;;20.15;56.56;98324.19;5082303;27;113892;-83
2023/05/22 06:00:54;;;;;;;;;;;19.70;93.50;;;20.18;56.77;98331.81;5050591;27;123793;-85
2023/05/22 06:03:20;;;;;;;;;;;19.70;93.50;;;20.19;56.54;98325.00;5055672;27;123337;-84
2023/05/22 06:05:51;;;;;;;;;;;19.70;93.40;;;20.22;56.56;98329.84;5082440;27;114722;-84
2023/05/22 06:08:18;;;;;;;;;;;19.80;93.40;;;20.30;56.11;98331.50;5087569;27;113720;-84
2023/05/22 06:10:48;;;;;;;;;;;19.80;93.40;;;20.37;55.97;98339.19;5068829;27;124530;-83
2023/05/22 06:13:15;;;;;;;;;;;19.90;93.30;;;20.43;55.86;98329.19;5069430;27;123705;-83
2023/05/22 06:15:41;;;;;;;;;;;19.90;93.30;;;20.54;55.86;98334.13;5064529;27;113636;-83
2023/05/22 06:18:07;;;;;;;;;;;20.00;93.30;;;20.62;55.62;98330.97;5058020;27;114021;-84
2023/05/22 06:20:38;;;;;;;;;;;20.10;93.30;;;20.71;55.40;98339.84;5057564;27;124874;-82
2023/05/22 06:23:04;;;;;;;;;;;20.20;93.30;;;20.79;55.68;98337.06;5083628;27;123708;-83
2023/05/22 06:25:30;;;;;;;;;;;20.20;93.20;;;20.83;55.39;98329.50;5081731;27;114165;-82
2023/05/22 06:27:56;;;;;;;;;;;20.30;93.10;;;20.86;55.03;98337.13;5058397;27;114497;-82
2023/05/22 06:30:25;;;;;;;;;;;20.30;93.00;;;20.92;54.91;98329.94;5076058;27;123985;-83
2023/05/22 06:32:52;;;;;;;;;;;18.30;92.10;;;20.95;54.64;98335.59;5082456;27;122683;-82
2023/05/22 06:35:18;;;;;;;;;;;20.40;92.90;;;20.99;54.55;98334.78;5057788;27;114991;-82
2023/05/22 06:37:44;;;;;;;;;;;20.40;92.80;;;21.03;54.50;98330.78;5089528;27;115261;-82
2023/05/22 06:40:14;;;;;;;;;;;20.50;92.80;;;21.10;54.07;98328.00;5074777;27;125059;-83
2023/05/22 06:42:44;;;;;;;;;;;20.60;92.70;;;21.13;53.96;98334.84;5069638;27;124878;-82
2023/05/22 06:45:13;;;;;;;;;;;20.60;92.50;;;21.17;53.92;98336.47;5069984;27;113951;-83
2023/05/22 06:47:39;;;;;;;;;;;20.60;92.50;;;21.23;53.90;98330.50;5087139;27;114134;-83
2023/05/22 06:50:06;;;;;;;;;;;20.70;92.70;;;21.24;53.68;98334.91;5091721;27;123344;-83
2023/05/22 06:52:32;;;;;;;;;;;20.70;92.40;;;21.32;54.03;98339.34;5070269;27;124295;-82
2023/05/22 06:55:04;;;;;;;;;;;20.80;92.40;;;21.43;53.54;98328.97;5078152;27;114362;-83
2023/05/22 06:57:33;;;;;;;;;;;20.90;92.40;;;21.53;53.51;98333.81;5088111;27;113791;-83
2023/05/22 07:00:06;;;;;;;;;;;20.90;92.30;;;21.57;53.11;98337.47;5043229;27;124491;-83
2023/05/22 07:02:32;;;;;;;;;;;21.00;92.10;;;21.62;52.99;98339.84;5081572;27;124899;-82
2023/05/22 07:05:04;;;;;;;;;;;21.10;92.10;;;21.69;53.02;98341.09;5086974;27;116092;-82
2023/05/22 07:07:30;;;;;;;;;;;21.10;92.00;;;21.75;53.32;98336.69;5073361;27;113186;-83
2023/05/22 07:09:56;;;;;;;;;;;21.20;92.00;;;21.81;52.66;98340.72;5071783;27;124296;-83
2023/05/22 07:12:26;;;;;;;;;;;21.30;91.80;;;21.88;52.65;98348.38;5085922;27;124143;-83
2023/05/22 07:14:53;;;;;;;;;;;21.30;91.80;;;21.93;52.51;98337.53;5074269;27;114771;-83
2023/05/22 07:17:20;;;;;;;;;;;21.40;91.80;;;22.03;52.57;98344.34;5074306;27;113834;-83
2023/05/22 07:19:50;;;;;;;;;;;21.50;91.70;;;22.12;52.21;98341.16;5065378;27;125598;-83
2023/05/22 07:22:16;;;;;;;;;;;21.60;91.60;;;22.15;52.22;98340.34;5043455;27;123398;-82
2023/05/22 07:24:46;;;;;;;;;;;21.60;91.50;;;22.20;52.00;98342.81;5069482;27;115037;-83
2023/05/22 07:27:14;;;;;;;;;;;21.70;91.50;;;22.23;51.72;98333.56;5067925;27;114174;-82
2023/05/22 07:29:40;;;;;;;;;;;21.70;91.40;;;22.26;51.97;98336.34;5087568;27;124617;-83
2023/05/22 07:32:09;;;;;;;;;;;21.80;91.40;;;22.36;52.03;98333.97;5062748;27;123922;-82
2023/05/22 07:34:38;;;;;;;;;;;21.80;91.40;;;22.48;51.90;98339.97;5073752;27;113711;-83
2023/05/22 07:37:14;;;;;;;;;;;21.90;91.40;;;22.61;51.52;98333.91;5066513;27;113994;-82
2023/05/22 07:39:40;;;;;;;;;;;22.00;91.40;;;22.73;51.31;98339.13;5060576;27;123831;-82
2023/05/22 07:42:09;;;;;;;;;;;22.10;91.30;;;22.84;50.94;98337.09;5057980;27;123841;-83
2023/05/22 07:44:38;;;;;;;;;;;22.20;91.20;;;22.90;50.95;98341.09;5063337;27;115141;-82
2023/05/22 07:47:04;;;;;;;;;;;22.20;91.10;;;22.99;50.86;98337.88;5064591;27;113961;-81
2023/05/22 07:49:31;;;;;;;;;;;22.30;91.10;;;23.08;50.62;98332.63;5055352;27;123513;-81
2023/05/22 07:52:02;;;;;;;;;;;22.40;91.10;;;23.21;50.21;98332.16;5045574;27;122986;-82
2023/05/22 07:54:28;;;;;;;;;;;22.50;91.00;;;23.28;50.24;98330.13;5061648;27;113668;-83
2023/05/22 07:56:54;;;;;;;;;;;22.60;90.70;;;23.34;50.17;98322.84;5088593;27;113770;-83
2023/05/22 07:59:22;;;;;;;;;;;22.70;90.70;;;23.43;49.68;98336.50;5042194;27;123855;-82
2023/05/22 08:01:51;;;;;;;;;;;22.70;90.60;;;23.47;49.27;98323.19;5063993;27;124459;-83
2023/05/22 08:04:18;;;;;;;;;;;22.80;90.40;;;23.52;49.17;98330.41;5082461;27;114361;-82
2023/05/22 08:06:44;;;;;;;;;;;22.90;90.40;;;23.56;49.30;98323.56;5084285;27;113517;-82
2023/05/22 08:09:10;;;;;;;;;;;23.00;90.30;;;23.60;49.04;98326.34;5087702;27;124562;-82
2023/05/22 08:11:40;;;;;;;;;;;23.00;90.20;;;23.61;49.07;98327.94;5071731;27;123050;-82
2023/05/22 08:14:07;;;;;;;;;;;23.10;90.10;;;23.63;49.33;98327.53;5083368;27;116160;-82
2023/05/22 08:16:34;;;;;;;;;;;23.10;90.00;;;23.66;49.09;98321.88;5053742;27;114046;-83
2023/05/22 08:19:07;;;;;;;;;;;23.20;90.00;;;23.66;49.19;98324.69;5080867;27;124418;-82
2023/05/22 08:21:41;;;;;;;;;;;23.20;90.00;;;23.68;49.14;98325.09;5041036;27;123376;-83
2023/05/22 08:24:07;;;;;;;;;;;23.20;90.00;;;23.71;48.32;98327.13;5072028;27;114456;-82
2023/05/22 08:26:36;;;;;;;;;;;23.30;89.10;;;23.76;48.27;98323.06;5079876;27;112002;-82
2023/05/22 08:29:02;;;;;;;;;;;23.30;89.00;;;23.79;48.34;98323.03;5072779;27;123419;-82
2023/05/22 08:31:33;;;;;;;;;;;23.30;88.60;;;23.85;48.28;98325.41;5069825;27;123211;-82
2023/05/22 08:34:03;;;;;;;;;;;23.40;88.80;;;23.90;48.26;98311.66;5066579;27;114584;-82
2023/05/22 08:36:33;;;;;;;;;;;23.40;88.60;;;23.94;48.08;98315.28;5047283;27;113201;-82
2023/05/22 08:39:06;;;;;;;;;;;23.50;88.70;;;24.01;48.22;98308.78;5048313;27;124134;-82
2023/05/22 08:41:32;;;;;;;;;;;23.60;88.80;;;24.06;48.09;98311.16;5066554;27;123952;-82
2023/05/22 08:43:58;;;;;;;;;;;23.60;88.50;;;24.11;47.83;98310.72;5053186;27;115178;-82
2023/05/22 08:46:28;;;;;;;;;;;23.70;88.30;;;24.17;47.16;98311.88;5069802;27;113533;-82
2023/05/22 08:48:58;;;;;;;;;;;23.70;87.90;;;24.25;47.31;98315.44;5051575;27;123990;-82
2023/05/22 08:51:30;;;;;;;;;;;23.70;87.80;;;24.34;47.71;98303.66;5048127;27;123600;-82
2023/05/22 08:53:56;;;;;;;;;;;23.80;87.80;;;24.41;47.31;98304.41;5046182;27;113501;-82
2023/05/22 08:56:29;;;;;;;;;;;23.90;88.00;;;24.48;47.44;98312.03;5048349;27;113687;-82
2023/05/22 08:58:56;;;;;;;;;;;24.00;87.90;;;24.52;47.17;98304.31;5049975;27;123293;-82
2023/05/22 09:01:28;;;;;;;;;;;24.00;87.70;;;24.62;47.12;98317.53;5051840;27;124475;-82
2023/05/22 09:04:04;;;;;;;;;;;24.10;87.50;;;24.66;46.79;98315.50;5065810;27;115633;-82
2023/05/22 09:06:34;;;;;;;;;;;24.20;87.30;;;24.72;47.15;98315.84;5068805;27;114745;-82
2023/05/22 09:09:02;;;;;;;;;;;24.20;87.40;;;24.75;47.11;98317.81;5057618;27;124092;-82
2023/05/22 09:11:32;;;;;;;;;;;24.30;87.50;;;24.77;47.01;98315.38;5049598;27;123303;-82
2023/05/22 09:14:11;;;;;;;;;;;24.30;87.30;;;24.82;47.09;98308.44;5032223;27;113428;-82
2023/05/22 09:16:45;;;;;;;;;;;24.40;87.40;;;24.89;47.15;98309.19;5059668;27;113421;-82
2023/05/22 09:19:13;;;;;;;;;;;24.50;87.40;;;24.96;47.10;98297.00;5057087;27;124245;-82
2023/05/22 09:21:40;;;;;;;;;;;24.50;87.30;;;25.05;46.64;98305.78;5069068;27;123972;-82
2023/05/22 09:24:10;;;;;;;;;;;24.60;87.30;;;25.13;46.45;98307.28;5073760;27;114409;-82
2023/05/22 09:26:40;;;;;;;;;;;24.70;87.00;;;25.21;46.14;98308.03;5062279;27;113627;-82
2023/05/22 09:29:08;;;;;;;;;;;24.70;86.40;;;25.29;46.33;98308.75;5065114;27;124238;-82
2023/05/22 09:31:47;;;;;;;;;;;24.80;86.50;;;25.34;45.67;98300.59;5063724;27;124758;-82
2023/05/22 09:34:13;;;;;;;;;;;24.80;86.20;;;25.41;45.78;98308.16;5069030;27;113356;-82
2023/05/22 09:36:40;;;;;;;;;;;24.90;85.80;;;25.45;45.55;98305.31;5064531;27;113237;-82
2023/05/22 09:39:10;;;;;;;;;;;24.90;86.40;;;25.50;44.73;98313.31;5069846;27;124899;-82
2023/05/22 09:41:38;;;;;;;;;;;25.00;85.10;;;25.53;44.32;98301.16;5072789;27;124237;-82
2023/05/22 09:44:12;;;;;;;;;;;25.00;84.20;;;25.56;44.45;98312.41;5072699;27;114731;-82
2023/05/22 09:46:47;;;;;;;;;;;25.10;84.00;;;25.61;43.72;98301.84;5063984;27;115306;-82
2023/05/22 09:49:13;;;;;;;;;;;25.10;83.10;;;25.57;43.15;98316.03;5054520;27;123883;-82
2023/05/22 09:51:48;;;;;;;;;;;25.10;81.90;;;25.50;43.48;98308.47;5091278;27;123549;-83
2023/05/22 09:54:14;;;;;;;;;;;25.10;81.60;;;25.48;43.77;98305.25;5085373;27;115290;-82
2023/05/22 09:56:59;;;;;;;;;;;25.10;81.90;;;25.50;44.08;98305.63;5072404;27;114660;-82
2023/05/22 09:59:39;;;;;;;;;;;25.20;82.30;;;25.54;44.46;98314.84;5057534;27;124829;-82
2023/05/22 10:02:12;;;;;;;;;;;25.10;82.60;;;25.53;44.54;98306.81;5086212;27;123793;-82
2023/05/22 10:04:39;;;;;;;;;;;25.20;83.00;;;25.54;44.76;98309.19;5062340;27;114593;-83
2023/05/22 10:07:12;;;;;;;;;;;25.20;83.20;;;25.55;44.47;98302.34;5067645;27;112532;-81
2023/05/22 10:09:39;;;;;;;;;;;25.30;83.30;;;25.59;44.73;98307.94;5077039;27;124497;-82
2023/05/22 10:12:09;;;;;;;;;;;24.80;82.70;;;25.60;44.54;98300.25;5070109;27;123688;-82
2023/05/22 10:14:35;;;;;;;;;;;25.30;82.90;;;25.62;44.63;98309.09;5054284;27;114072;-82
2023/05/22 10:17:03;;;;;;;;;;;25.30;82.90;;;25.64;44.92;98307.47;5057712;27;114202;-82
2023/05/22 10:19:34;;;;;;;;;;;25.30;82.90;;;25.66;44.85;98309.88;5036495;27;123332;-82
2023/05/22 10:22:02;;;;;;;;;;;25.30;83.20;;;25.65;44.42;98306.22;5066297;27;123178;-83
2023/05/22 10:24:28;;;;;;;;;;;25.30;82.90;;;25.68;44.76;98299.69;5080267;27;114557;-83
2023/05/22 10:26:58;;;;;;;;;;;25.30;83.10;;;25.72;44.79;98303.28;5056429;27;113787;-83
2023/05/22 10:29:35;;;;;;;;;;;25.40;83.40;;;25.77;44.69;98302.81;5069008;27;124414;-83
2023/05/22 10:32:26;;;;;;;;;;;25.40;83.90;;;25.79;44.12;98299.53;5059625;27;123184;-83
2023/05/22 10:35:09;;;;;;;;;;;25.40;82.50;;;25.79;44.40;98302.38;5072305;27;114368;-82
2023/05/22 10:37:59;;;;;;;;;;;25.50;82.20;;;25.79;44.56;98296.72;5054741;27;114060;-83
2023/05/22 10:40:29;;;;;;;;;;;25.50;82.40;;;25.82;44.20;98295.06;5059288;27;124398;-83
2023/05/22 10:43:01;;;;;;;;;;;25.50;82.60;;;25.86;44.64;98290.97;5058299;27;123047;-84
2023/05/22 10:45:28;;;;;;;;;;;25.50;82.70;;;25.94;44.25;98286.81;5050056;27;114784;-82
2023/05/22 10:48:01;;;;;;;;;;;25.50;82.70;;;25.98;44.05;98279.06;5055222;27;114797;-83
2023/05/22 10:50:28;;;;;;;;;;;25.60;82.10;;;26.05;44.18;98283.00;5067701;27;123830;-82
2023/05/22 10:53:23;;;;;;;;;;;25.60;82.10;;;26.08;43.89;98279.31;5059638;27;124764;-82
2023/05/22 10:56:07;;;;;;;;;;;25.60;81.80;;;26.16;43.94;98289.28;5067117;27;114929;-83
2023/05/22 10:58:37;;;;;;;;;;;25.70;81.80;;;26.21;43.68;98280.31;5052963;27;113631;-83
2023/05/22 11:01:14;;;;;;;;;;;25.80;81.60;;;26.23;42.92;98266.53;5048512;27;124856;-81
2023/05/22 11:04:02;;;;;;;;;;;25.80;80.60;;;26.29;43.22;98272.50;5047252;27;123944;-83
2023/05/22 11:06:47;;;;;;;;;;;25.90;80.70;;;26.38;43.38;98265.06;5038566;27;113710;-82
2023/05/22 11:09:33;;;;;;;;;;;26.00;81.00;;;26.47;42.88;98267.31;5060066;27;113843;-82
2023/05/22 11:12:30;;;;;;;;;;;26.00;80.80;;;26.49;42.99;98252.69;5059052;27;124289;-82
2023/05/22 11:15:07;;;;;;;;;;;26.10;81.20;;;26.57;43.85;98254.19;5056564;27;124028;-82
2023/05/22 11:17:49;;;;;;;;;;;26.10;81.80;;;26.63;43.65;98252.47;5058121;27;114079;-82
2023/05/22 11:20:24;;;;;;;;;;;26.10;81.60;;;26.69;43.46;98247.91;5047621;27;113890;-81
2023/05/22 11:23:08;;;;;;;;;;;26.20;81.70;;;26.79;43.44;98258.22;5045790;27;123637;-82